createdAt,value
2023-10-09T00:01:27.941Z,95545.00
2023-10-09T00:03:55.644Z,95541.88
2023-10-09T00:06:38.222Z,95550.28
2023-10-09T00:09:40.979Z,95545.78
2023-10-09T00:12:11.532Z,95540.09
2023-10-09T00:14:41.393Z,95544.75
2023-10-09T00:17:13.733Z,95541.50
2023-10-09T00:19:40.411Z,95543.69
2023-10-09T00:22:27.434Z,95547.09
2023-10-09T00:25:11.013Z,95533.03
2023-10-09T00:27:45.653Z,95528.28
2023-10-09T00:30:30.692Z,95534.50
2023-10-09T00:33:05.085Z,95530.28
2023-10-09T00:35:37.979Z,95524.38
2023-10-09T00:38:15.534Z,95522.31
2023-10-09T00:40:48.371Z,95528.53
2023-10-09T00:43:15.165Z,95521.25
2023-10-09T00:45:45.804Z,95519.72
2023-10-09T00:48:16.792Z,95512.31
2023-10-09T00:50:54.023Z,95503.00
2023-10-09T00:53:31.637Z,95514.06
2023-10-09T00:56:00.329Z,95509.72
2023-10-09T00:58:32.198Z,95506.78
2023-10-09T01:01:00.686Z,95511.78
2023-10-09T01:03:28.492Z,95506.00
2023-10-09T01:06:00.141Z,95503.06
2023-10-09T01:08:42.562Z,95496.47
2023-10-09T01:11:19.348Z,95490.19
2023-10-09T01:13:47.610Z,95494.22
2023-10-09T01:16:19.035Z,95491.25
2023-10-09T01:18:48.208Z,95478.59
2023-10-09T01:21:16.162Z,95480.06
2023-10-09T01:24:04.982Z,95473.88
2023-10-09T01:26:40.716Z,95476.03
2023-10-09T01:29:12.017Z,95466.53
2023-10-09T01:31:44.750Z,95464.78
2023-10-09T01:34:13.937Z,95460.25
2023-10-09T01:36:40.788Z,95464.72
2023-10-09T01:39:24.394Z,95463.28
2023-10-09T01:41:53.203Z,95454.25
2023-10-09T01:44:20.120Z,95442.09
2023-10-09T01:46:49.824Z,95447.69
2023-10-09T01:49:22.618Z,95451.47
2023-10-09T01:51:51.613Z,95441.66
2023-10-09T01:54:34.666Z,95441.59
2023-10-09T01:57:06.662Z,95437.50
2023-10-09T01:59:34.090Z,95441.03
2023-10-09T02:02:06.993Z,95444.00
2023-10-09T02:04:33.796Z,95438.41
2023-10-09T02:07:00.697Z,95442.09
2023-10-09T02:09:32.683Z,95438.69
2023-10-09T02:11:59.418Z,95438.41
2023-10-09T02:14:26.304Z,95440.28
2023-10-09T02:17:09.124Z,95447.78
2023-10-09T02:19:35.903Z,95433.59
2023-10-09T02:22:13.719Z,95436.69
2023-10-09T02:24:58.900Z,95431.25
2023-10-09T02:27:42.240Z,95423.47
2023-10-09T02:30:16.593Z,95429.94
2023-10-09T02:32:44.413Z,95436.75
2023-10-09T02:35:29.275Z,95426.53
2023-10-09T02:37:59.040Z,95426.81
2023-10-09T02:40:34.586Z,95427.09
2023-10-09T02:43:01.594Z,95417.34
2023-10-09T02:45:36.034Z,95414.84
2023-10-09T02:48:11.942Z,95430.63
2023-10-09T02:50:40.024Z,95417.50
2023-10-09T02:53:10.952Z,95414.41
2023-10-09T02:55:40.015Z,95413.84
2023-10-09T02:58:08.507Z,95414.00
2023-10-09T03:00:37.436Z,95402.19
2023-10-09T03:03:07.515Z,95405.66
2023-10-09T03:05:34.609Z,95401.53
2023-10-09T03:08:01.428Z,95401.81
2023-10-09T03:10:28.122Z,95390.47
2023-10-09T03:12:56.897Z,95390.69
2023-10-09T03:15:23.730Z,95390.03
2023-10-09T03:17:50.459Z,95392.00
2023-10-09T03:20:18.692Z,95391.78
2023-10-09T03:22:46.590Z,95384.94
2023-10-09T03:25:15.541Z,95381.22
2023-10-09T03:27:51.612Z,95383.50
2023-10-09T03:30:25.902Z,95381.47
2023-10-09T03:32:53.898Z,95380.09
2023-10-09T03:35:28.459Z,95382.94
2023-10-09T03:38:12.701Z,95373.03
2023-10-09T03:40:43.556Z,95373.78
2023-10-09T03:43:11.849Z,95378.06
2023-10-09T03:45:46.434Z,95385.84
2023-10-09T03:48:21.867Z,95372.59
2023-10-09T03:50:49.825Z,95371.69
2023-10-09T03:53:17.288Z,95367.09
2023-10-09T03:55:43.925Z,95363.38
2023-10-09T03:58:14.785Z,95369.22
2023-10-09T04:00:47.004Z,95365.09
2023-10-09T04:03:16.324Z,95358.53
2023-10-09T04:05:46.520Z,95355.53
2023-10-09T04:08:30.486Z,95352.06
2023-10-09T04:11:03.928Z,95356.41
2023-10-09T04:13:35.905Z,95354.06
2023-10-09T04:16:23.139Z,95365.38
2023-10-09T04:18:50.587Z,95367.53
2023-10-09T04:21:20.269Z,95358.72
2023-10-09T04:24:06.328Z,95344.75
2023-10-09T04:26:35.958Z,95350.69
2023-10-09T04:29:03.334Z,95351.63
2023-10-09T04:31:35.771Z,95349.22
2023-10-09T04:34:23.226Z,95344.69
2023-10-09T04:36:58.120Z,95342.25
2023-10-09T04:39:30.518Z,95349.06
2023-10-09T04:42:20.735Z,95343.00
2023-10-09T04:45:03.800Z,95338.56
2023-10-09T04:47:59.952Z,95340.97
2023-10-09T04:50:32.588Z,95340.00
2023-10-09T04:53:19.211Z,95335.25
2023-10-09T04:55:55.348Z,95334.34
2023-10-09T04:58:26.193Z,95337.44
2023-10-09T05:01:00.276Z,95341.91
2023-10-09T05:03:44.469Z,95345.88
2023-10-09T05:06:30.948Z,95348.09
2023-10-09T05:09:08.886Z,95360.41
2023-10-09T05:11:54.083Z,95358.03
2023-10-09T05:14:39.992Z,95352.38
2023-10-09T05:17:07.849Z,95356.59
2023-10-09T05:19:54.843Z,95365.72
2023-10-09T05:22:37.431Z,95360.06
2023-10-09T05:25:16.001Z,95357.47
2023-10-09T05:27:47.052Z,95351.00
2023-10-09T05:30:26.149Z,95361.66
2023-10-09T05:32:59.986Z,95357.72
2023-10-09T05:35:40.629Z,95369.75
2023-10-09T05:38:26.144Z,95364.72
2023-10-09T05:41:06.036Z,95361.44
2023-10-09T05:43:51.403Z,95365.63
2023-10-09T05:46:18.146Z,95369.44
2023-10-09T05:48:44.828Z,95369.00
2023-10-09T05:51:35.880Z,95378.06
2023-10-09T05:54:25.779Z,95381.25
2023-10-09T05:57:21.751Z,95381.72
2023-10-09T06:00:07.110Z,95377.47
2023-10-09T06:03:02.640Z,95372.31
2023-10-09T06:05:41.690Z,95376.16
2023-10-09T06:08:13.943Z,95381.56
2023-10-09T06:10:41.965Z,95386.16
2023-10-09T06:13:27.688Z,95391.34
2023-10-09T06:16:10.922Z,95388.91
2023-10-09T06:18:44.533Z,95392.38
2023-10-09T06:21:31.631Z,95392.13
2023-10-09T06:24:18.990Z,95394.06
2023-10-09T06:26:59.275Z,95396.75
2023-10-09T06:29:44.746Z,95406.81
2023-10-09T06:32:27.483Z,95410.53
2023-10-09T06:35:16.184Z,95417.34
2023-10-09T06:38:01.651Z,95416.91
2023-10-09T06:40:48.708Z,95420.38
2023-10-09T06:43:18.647Z,95422.66
2023-10-09T06:45:45.637Z,95415.88
2023-10-09T06:48:31.653Z,95423.13
2023-10-09T06:51:17.233Z,95430.72
2023-10-09T06:53:55.977Z,95437.94
2023-10-09T06:56:48.892Z,95434.28
2023-10-09T06:59:25.631Z,95437.25
2023-10-09T07:02:11.543Z,95438.88
2023-10-09T07:04:38.999Z,95436.47
2023-10-09T07:07:11.277Z,95431.38
2023-10-09T07:09:44.433Z,95431.69
2023-10-09T07:12:21.759Z,95425.22
2023-10-09T07:14:48.539Z,95432.19
2023-10-09T07:17:24.600Z,95433.94
2023-10-09T07:19:52.606Z,95430.00
2023-10-09T07:22:22.412Z,95432.22
2023-10-09T07:24:51.130Z,95424.63
2023-10-09T07:27:40.403Z,95429.81
2023-10-09T07:30:28.187Z,95428.38
2023-10-09T07:32:55.785Z,95429.09
2023-10-09T07:35:41.090Z,95427.84
2023-10-09T07:38:10.675Z,95429.69
2023-10-09T07:40:56.104Z,95427.06
2023-10-09T07:43:30.040Z,95431.00
2023-10-09T07:46:00.097Z,95423.84
2023-10-09T07:48:27.239Z,95438.09
2023-10-09T07:50:58.904Z,95434.09
2023-10-09T07:53:28.411Z,95439.91
2023-10-09T07:55:56.544Z,95423.84
2023-10-09T07:58:26.336Z,95431.13
2023-10-09T08:00:59.665Z,95434.00
2023-10-09T08:03:26.867Z,95430.94
2023-10-09T08:05:55.103Z,95427.09
2023-10-09T08:08:40.750Z,95437.53
2023-10-09T08:11:28.653Z,95438.13
2023-10-09T08:13:56.850Z,95441.69
2023-10-09T08:16:27.065Z,95449.34
2023-10-09T08:18:58.397Z,95439.38
2023-10-09T08:21:43.268Z,95438.28
2023-10-09T08:24:30.133Z,95434.72
2023-10-09T08:27:16.888Z,95430.59
2023-10-09T08:29:48.004Z,95430.31
2023-10-09T08:34:15.343Z,95420.31
2023-10-09T08:35:20.313Z,95419.28
2023-10-09T08:37:49.809Z,95431.38
2023-10-09T08:40:21.694Z,95423.06
2023-10-09T08:42:54.331Z,95424.97
2023-10-09T08:45:25.922Z,95419.03
2023-10-09T08:47:55.180Z,95405.63
2023-10-09T08:50:22.475Z,95424.69
2023-10-09T08:52:51.080Z,95416.47
2023-10-09T08:55:18.218Z,95415.56
2023-10-09T08:57:47.459Z,95412.94
2023-10-09T09:00:22.476Z,95410.34
2023-10-09T09:02:51.443Z,95410.41
2023-10-09T09:05:19.715Z,95408.09
2023-10-09T09:07:46.612Z,95427.09
2023-10-09T09:10:19.352Z,95418.06
2023-10-09T09:12:46.416Z,95419.44
2023-10-09T09:15:21.252Z,95419.94
2023-10-09T09:17:50.180Z,95422.38
2023-10-09T09:20:31.668Z,95423.88
2023-10-09T09:22:58.905Z,95424.75
2023-10-09T09:25:44.652Z,95423.94
2023-10-09T09:28:13.819Z,95432.22
2023-10-09T09:30:42.144Z,95425.47
2023-10-09T09:33:21.889Z,95426.97
2023-10-09T09:36:00.657Z,95428.94
2023-10-09T09:38:28.978Z,95434.44
2023-10-09T09:40:58.080Z,95426.50
2023-10-09T09:43:26.880Z,95424.03
2023-10-09T09:45:54.770Z,95422.78
2023-10-09T09:48:24.852Z,95411.84
2023-10-09T09:50:55.370Z,95428.19
2023-10-09T09:53:25.034Z,95416.72
2023-10-09T09:55:59.308Z,95412.00
2023-10-09T09:58:28.608Z,95428.63
2023-10-09T10:01:02.394Z,95427.41
2023-10-09T10:03:34.441Z,95427.50
2023-10-09T10:06:07.160Z,95413.84
2023-10-09T10:08:35.684Z,95407.50
2023-10-09T10:11:15.070Z,95424.63
2023-10-09T10:14:09.015Z,95428.19
2023-10-09T10:17:04.201Z,95420.44
2023-10-09T10:20:19.630Z,95414.59
2023-10-09T10:22:49.596Z,95415.16
2023-10-09T10:25:42.336Z,95422.16
2023-10-09T10:28:40.570Z,95413.09
2023-10-09T10:31:11.203Z,95420.88
2023-10-09T10:34:08.641Z,95423.75
2023-10-09T10:36:35.874Z,95416.13
2023-10-09T10:39:06.637Z,95404.31
2023-10-09T10:41:37.671Z,95415.53
2023-10-09T10:44:32.559Z,95404.84
2023-10-09T10:46:59.464Z,95405.34
2023-10-09T10:49:37.534Z,95399.13
2023-10-09T10:52:19.937Z,95399.81
2023-10-09T10:54:47.194Z,95396.03
2023-10-09T10:57:31.632Z,95405.66
2023-10-09T11:00:07.255Z,95392.16
2023-10-09T11:02:38.682Z,95387.69
2023-10-09T11:05:16.074Z,95389.06
2023-10-09T11:07:43.612Z,95391.53
2023-10-09T11:10:11.835Z,95382.56
2023-10-09T11:13:06.691Z,95381.03
2023-10-09T11:15:46.538Z,95379.72
2023-10-09T11:18:20.582Z,95380.88
2023-10-09T11:21:16.721Z,95373.63
2023-10-09T11:23:53.251Z,95381.88
2023-10-09T11:26:30.221Z,95381.44
2023-10-09T11:29:26.923Z,95372.41
2023-10-09T11:32:01.906Z,95374.09
2023-10-09T11:34:39.058Z,95379.78
2023-10-09T11:37:16.757Z,95381.81
2023-10-09T11:39:55.898Z,95368.25
2023-10-09T11:42:38.856Z,95365.94
2023-10-09T11:45:20.677Z,95372.19
2023-10-09T11:47:58.304Z,95375.63
2023-10-09T11:50:44.080Z,95376.00
2023-10-09T11:53:23.641Z,95373.44
2023-10-09T11:55:51.226Z,95375.06
2023-10-09T11:58:24.405Z,95374.94
2023-10-09T12:00:57.856Z,95380.88
2023-10-09T12:03:29.456Z,95365.50
2023-10-09T12:05:57.448Z,95368.00
2023-10-09T12:08:27.637Z,95359.31
2023-10-09T12:10:57.519Z,95369.09
2023-10-09T12:13:24.322Z,95357.97
2023-10-09T12:15:53.645Z,95359.38
2023-10-09T12:18:22.939Z,95358.84
2023-10-09T12:20:52.615Z,95363.69
2023-10-09T12:23:20.238Z,95371.44
2023-10-09T12:25:49.005Z,95357.16
2023-10-09T12:28:15.703Z,95360.41
2023-10-09T12:30:42.815Z,95352.84
2023-10-09T12:33:10.565Z,95357.84
2023-10-09T12:35:39.616Z,95366.38
2023-10-09T12:38:09.938Z,95364.00
2023-10-09T12:40:37.305Z,95365.41
2023-10-09T12:43:04.623Z,95365.25
2023-10-09T12:45:35.026Z,95365.75
2023-10-09T12:48:04.546Z,95364.78
2023-10-09T12:50:34.869Z,95367.13
2023-10-09T12:53:03.441Z,95360.03
2023-10-09T12:55:33.136Z,95359.63
2023-10-09T12:58:07.408Z,95364.28
2023-10-09T13:00:38.239Z,95373.00
2023-10-09T13:03:17.426Z,95371.69
2023-10-09T13:05:57.319Z,95381.69
2023-10-09T13:08:33.037Z,95373.72
2023-10-09T13:11:11.562Z,95373.53
2023-10-09T13:13:47.741Z,95370.31
2023-10-09T13:16:25.524Z,95375.63
2023-10-09T13:18:53.974Z,95375.66
2023-10-09T13:21:21.842Z,95359.63
2023-10-09T13:23:51.106Z,95371.00
2023-10-09T13:26:33.121Z,95379.81
2023-10-09T13:29:02.805Z,95382.56
2023-10-09T13:31:33.272Z,95385.88
2023-10-09T13:34:02.289Z,95378.72
2023-10-09T13:36:32.277Z,95382.72
2023-10-09T13:39:23.521Z,95386.22
2023-10-09T13:41:51.303Z,95383.41
2023-10-09T13:44:18.085Z,95388.16
2023-10-09T13:46:45.435Z,95383.44
2023-10-09T13:49:15.710Z,95391.16
2023-10-09T13:51:45.853Z,95399.25
2023-10-09T13:54:29.804Z,95399.56
2023-10-09T13:56:56.595Z,95397.25
2023-10-09T13:59:26.081Z,95407.38
2023-10-09T14:01:56.035Z,95414.97
2023-10-09T14:04:24.142Z,95415.38
2023-10-09T14:06:58.131Z,95421.34
2023-10-09T14:09:39.021Z,95421.97
2023-10-09T14:12:07.906Z,95425.59
2023-10-09T14:14:35.811Z,95433.91
2023-10-09T14:17:02.572Z,95436.00
2023-10-09T14:19:34.300Z,95438.72
2023-10-09T14:22:00.997Z,95439.91
2023-10-09T14:24:34.037Z,95444.09
2023-10-09T14:27:00.821Z,95450.34
2023-10-09T14:29:27.996Z,95447.66
2023-10-09T14:32:01.642Z,95435.88
2023-10-09T14:34:36.950Z,95420.47
2023-10-09T14:37:04.396Z,95421.63
2023-10-09T14:39:37.877Z,95421.53
2023-10-09T14:42:10.631Z,95407.09
2023-10-09T14:44:40.020Z,95403.09
2023-10-09T14:47:06.774Z,95399.91
2023-10-09T14:49:38.522Z,95408.56
2023-10-09T14:52:09.547Z,95423.28
2023-10-09T14:54:39.227Z,95409.28
2023-10-09T14:57:07.193Z,95392.44
2023-10-09T14:59:34.261Z,95386.50
2023-10-09T15:02:01.059Z,95375.97
2023-10-09T15:04:27.916Z,95369.78
2023-10-09T15:06:54.603Z,95361.25
2023-10-09T15:09:24.419Z,95355.59
2023-10-09T15:11:53.195Z,95355.91
2023-10-09T15:14:19.970Z,95355.38
2023-10-09T15:16:47.758Z,95351.56
2023-10-09T15:19:15.590Z,95345.13
2023-10-09T15:21:45.317Z,95346.72
2023-10-09T15:24:20.548Z,95339.47
2023-10-09T15:26:53.510Z,95345.66
2023-10-09T15:29:29.018Z,95347.50
2023-10-09T15:31:56.060Z,95334.97
2023-10-09T15:34:22.963Z,95332.22
2023-10-09T15:36:49.584Z,95315.16
2023-10-09T15:39:20.271Z,95300.88
2023-10-09T15:41:47.168Z,95301.22
2023-10-09T15:44:17.840Z,95286.25
2023-10-09T15:46:49.048Z,95286.94
2023-10-09T15:49:16.466Z,95289.28
2023-10-09T15:51:48.271Z,95276.88
2023-10-09T15:54:17.561Z,95282.06
2023-10-09T15:56:49.100Z,95283.41
2023-10-09T15:59:25.421Z,95297.13
2023-10-09T16:01:54.326Z,95307.56
2023-10-09T16:04:21.070Z,95309.72
2023-10-09T16:06:47.742Z,95318.03
2023-10-09T16:09:16.377Z,95315.13
2023-10-09T16:11:43.034Z,95320.22
2023-10-09T16:14:11.040Z,95323.91
2023-10-09T16:16:43.173Z,95320.19
2023-10-09T16:19:11.908Z,95319.44
2023-10-09T16:21:39.680Z,95317.19
2023-10-09T16:24:07.309Z,95320.97
2023-10-09T16:26:56.303Z,95316.56
2023-10-09T16:29:23.655Z,95326.88
2023-10-09T16:31:50.484Z,95327.31
2023-10-09T16:34:18.538Z,95336.59
2023-10-09T16:36:46.419Z,95339.97
2023-10-09T16:39:25.429Z,95332.91
2023-10-09T16:41:54.573Z,95324.59
2023-10-09T16:44:21.240Z,95326.22
2023-10-09T16:46:48.700Z,95329.16
2023-10-09T16:49:15.614Z,95329.16
2023-10-09T16:51:47.509Z,95319.22
2023-10-09T16:54:16.619Z,95330.75
2023-10-09T16:56:43.942Z,95329.97
2023-10-09T16:59:15.155Z,95333.44
2023-10-09T17:01:42.198Z,95337.22
2023-10-09T17:04:12.964Z,95340.81
2023-10-09T17:06:40.174Z,95344.56
2023-10-09T17:09:08.844Z,95336.81
2023-10-09T17:11:37.719Z,95337.28
2023-10-09T17:14:07.122Z,95335.13
2023-10-09T17:16:33.887Z,95335.38
2023-10-09T17:19:06.988Z,95335.38
2023-10-09T17:21:37.904Z,95339.16
2023-10-09T17:24:05.635Z,95328.94
2023-10-09T17:26:35.023Z,95335.91
2023-10-09T17:29:01.490Z,95322.47
2023-10-09T17:31:28.257Z,95322.47
2023-10-09T17:33:55.277Z,95323.84
2023-10-09T17:36:22.900Z,95325.16
2023-10-09T17:38:52.664Z,95336.22
2023-10-09T17:41:21.108Z,95336.69
2023-10-09T17:43:49.199Z,95335.31
2023-10-09T17:46:15.883Z,95340.16
2023-10-09T17:48:43.102Z,95338.31
2023-10-09T17:51:09.906Z,95338.81
2023-10-09T17:53:39.314Z,95343.00
2023-10-09T17:56:06.538Z,95345.63
2023-10-09T17:58:33.220Z,95347.22
2023-10-09T18:01:06.299Z,95347.69
2023-10-09T18:03:33.664Z,95353.22
2023-10-09T18:06:01.025Z,95359.63
2023-10-09T18:08:27.790Z,95351.28
2023-10-09T18:10:58.535Z,95346.97
2023-10-09T18:13:28.627Z,95348.34
2023-10-09T18:16:13.539Z,95345.66
2023-10-09T18:18:51.425Z,95338.94
2023-10-09T18:21:20.702Z,95344.56
2023-10-09T18:23:48.958Z,95337.88
2023-10-09T18:26:15.892Z,95343.22
2023-10-09T18:28:43.005Z,95342.75
2023-10-09T18:31:14.973Z,95341.34
2023-10-09T18:33:44.445Z,95334.88
2023-10-09T18:36:12.507Z,95340.63
2023-10-09T18:38:39.703Z,95328.03
2023-10-09T18:41:07.019Z,95324.22
2023-10-09T18:43:36.055Z,95319.91
2023-10-09T18:46:05.010Z,95317.50
2023-10-09T18:48:33.288Z,95312.63
2023-10-09T18:51:01.716Z,95304.59
2023-10-09T18:53:32.702Z,95311.03
2023-10-09T18:56:01.546Z,95308.91
2023-10-09T18:58:28.664Z,95313.44
2023-10-09T19:01:07.480Z,95309.25
2023-10-09T19:03:35.892Z,95305.31
2023-10-09T19:06:09.223Z,95298.44
2023-10-09T19:08:36.062Z,95309.44
2023-10-09T19:11:10.626Z,95306.03
2023-10-09T19:13:38.095Z,95310.94
2023-10-09T19:16:06.069Z,95302.53
2023-10-09T19:18:35.684Z,95301.56
2023-10-09T19:21:09.331Z,95308.06
2023-10-09T19:23:36.840Z,95304.09
2023-10-09T19:26:04.596Z,95304.56
2023-10-09T19:28:31.449Z,95300.72
2023-10-09T19:31:05.370Z,95299.97
2023-10-09T19:33:36.377Z,95311.97
2023-10-09T19:36:12.209Z,95315.22
2023-10-09T19:38:39.198Z,95326.50
2023-10-09T19:41:06.942Z,95312.72
2023-10-09T19:43:35.166Z,95316.31
2023-10-09T19:46:02.986Z,95322.13
2023-10-09T19:48:29.711Z,95332.31
2023-10-09T19:50:59.732Z,95340.63
2023-10-09T19:53:27.924Z,95352.78
2023-10-09T19:55:58.361Z,95344.97
2023-10-09T19:58:27.749Z,95357.31
2023-10-09T20:00:54.447Z,95353.81
2023-10-09T20:03:24.062Z,95352.75
2023-10-09T20:05:51.724Z,95351.94
2023-10-09T20:08:18.449Z,95351.66
2023-10-09T20:10:47.648Z,95352.75
2023-10-09T20:13:14.268Z,95355.22
2023-10-09T20:15:43.212Z,95351.13
2023-10-09T20:18:09.939Z,95352.47
2023-10-09T20:20:40.143Z,95351.94
2023-10-09T20:23:08.743Z,95351.13
2023-10-09T20:25:35.427Z,95360.25
2023-10-09T20:28:03.646Z,95359.47
2023-10-09T20:30:30.705Z,95361.88
2023-10-09T20:32:57.382Z,95369.91
2023-10-09T20:35:27.784Z,95375.31
2023-10-09T20:38:02.551Z,95375.56
2023-10-09T20:40:32.633Z,95369.66
2023-10-09T20:42:59.265Z,95369.41
2023-10-09T20:45:27.258Z,95378.25
2023-10-09T20:47:56.580Z,95377.19
2023-10-09T20:50:23.438Z,95370.22
2023-10-09T20:52:50.692Z,95378.53
2023-10-09T20:55:20.839Z,95375.84
2023-10-09T20:57:47.476Z,95380.13
2023-10-09T21:00:20.340Z,95379.25
2023-10-09T21:02:49.430Z,95382.31
2023-10-09T21:05:16.714Z,95380.41
2023-10-09T21:07:45.432Z,95384.19
2023-10-09T21:10:14.945Z,95384.19
2023-10-09T21:12:42.357Z,95399.72
2023-10-09T21:15:10.755Z,95385.69
2023-10-09T21:17:38.857Z,95391.66
2023-10-09T21:20:10.806Z,95384.97
2023-10-09T21:22:38.380Z,95397.03
2023-10-09T21:25:06.445Z,95395.44
2023-10-09T21:27:34.562Z,95393.28
2023-10-09T21:30:02.170Z,95394.91
2023-10-09T21:32:29.055Z,95398.94
2023-10-09T21:34:55.828Z,95407.22
2023-10-09T21:37:23.791Z,95404.56
2023-10-09T21:39:52.889Z,95408.03
2023-10-09T21:42:19.628Z,95412.34
2023-10-09T21:44:47.580Z,95406.44
2023-10-09T21:47:14.964Z,95403.75
2023-10-09T21:49:42.214Z,95408.84
2023-10-09T21:52:09.123Z,95408.31
2023-10-09T21:54:38.546Z,95413.41
2023-10-09T21:57:05.188Z,95407.75
2023-10-09T21:59:31.854Z,95400.53
2023-10-09T22:01:58.762Z,95404.81
2023-10-09T22:04:26.906Z,95407.25
2023-10-09T22:06:53.512Z,95410.97
2023-10-09T22:09:20.120Z,95409.63
2023-10-09T22:11:48.087Z,95413.94
2023-10-09T22:14:14.952Z,95408.03
2023-10-09T22:16:41.740Z,95407.50
2023-10-09T22:19:14.858Z,95403.47
2023-10-09T22:21:42.614Z,95402.41
2023-10-09T22:24:18.987Z,95403.88
2023-10-09T22:26:45.690Z,95406.44
2023-10-09T22:29:14.779Z,95405.09
2023-10-09T22:31:47.311Z,95411.06
2023-10-09T22:34:14.193Z,95419.84
2023-10-09T22:36:54.265Z,95409.34
2023-10-09T22:39:22.386Z,95402.13
2023-10-09T22:41:55.557Z,95398.66
2023-10-09T22:44:25.357Z,95409.13
2023-10-09T22:46:52.854Z,95407.16
2023-10-09T22:49:19.902Z,95406.13
2023-10-09T22:51:52.543Z,95406.88
2023-10-09T22:54:24.558Z,95400.47
2023-10-09T22:56:52.788Z,95400.75
2023-10-09T22:59:27.346Z,95404.28
2023-10-09T23:01:56.486Z,95409.59
2023-10-09T23:04:44.354Z,95403.22
2023-10-09T23:07:17.095Z,95404.81
2023-10-09T23:09:51.396Z,95405.88
2023-10-09T23:12:23.624Z,95406.16
2023-10-09T23:14:51.810Z,95403.75
2023-10-09T23:17:20.280Z,95410.16
2023-10-09T23:19:57.008Z,95410.94
2023-10-09T23:22:46.364Z,95409.88
2023-10-09T23:25:18.795Z,95405.59
2023-10-09T23:27:45.386Z,95409.06
2023-10-09T23:30:19.975Z,95404.00
2023-10-09T23:32:48.528Z,95410.41
2023-10-09T23:35:20.604Z,95412.53
2023-10-09T23:38:06.259Z,95413.53
2023-10-09T23:40:40.671Z,95403.44
2023-10-09T23:43:13.883Z,95405.81
2023-10-09T23:45:41.590Z,95414.75
2023-10-09T23:48:16.283Z,95411.53
2023-10-09T23:50:45.171Z,95413.25
2023-10-09T23:53:15.869Z,95412.53
2023-10-09T23:55:43.946Z,95409.59
2023-10-09T23:58:20.119Z,95417.91
